createdAt,value
2022-08-30T00:00:05.462Z,96191.22
2022-08-30T00:05:08.570Z,96211.31
2022-08-30T00:10:11.385Z,96225.72
2022-08-30T00:15:14.268Z,96213.59
2022-08-30T00:20:21.868Z,96215.84
2022-08-30T00:25:25.013Z,96229.50
2022-08-30T00:30:27.341Z,96217.53
2022-08-30T00:35:29.586Z,96237.34
2022-08-30T00:40:31.714Z,96232.19
2022-08-30T00:45:36.861Z,96233.72
2022-08-30T00:50:50.445Z,96235.63
2022-08-30T00:55:55.127Z,96223.06
2022-08-30T01:01:00.983Z,96231.16
2022-08-30T01:06:04.799Z,96244.78
2022-08-30T01:11:08.120Z,96241.88
2022-08-30T01:16:11.084Z,96242.31
2022-08-30T01:21:34.447Z,96249.28
2022-08-30T01:26:37.696Z,96248.44
2022-08-30T01:31:40.156Z,96232.50
2022-08-30T01:36:45.236Z,96230.44
2022-08-30T01:41:47.525Z,96219.09
2022-08-30T01:46:49.789Z,96231.59
2022-08-30T01:52:00.924Z,96238.34
2022-08-30T01:57:04.387Z,96226.06
2022-08-30T02:02:07.238Z,96234.50
2022-08-30T02:07:10.105Z,96249.28
2022-08-30T02:12:12.384Z,96241.31
2022-08-30T02:17:16.197Z,96235.56
2022-08-30T02:22:18.433Z,96235.88
2022-08-30T02:27:20.611Z,96228.56
2022-08-30T02:32:22.829Z,96225.38
2022-08-30T02:37:25.237Z,96238.78
2022-08-30T02:42:27.334Z,96235.81
2022-08-30T02:47:29.398Z,96223.66
2022-08-30T02:52:31.845Z,96227.69
2022-08-30T02:57:34.277Z,96233.91
2022-08-30T03:02:36.378Z,96221.72
2022-08-30T03:07:38.748Z,96235.16
2022-08-30T03:12:42.130Z,96243.63
2022-08-30T03:17:44.456Z,96238.28
2022-08-30T03:22:46.680Z,96233.34
2022-08-30T03:27:50.847Z,96242.91
2022-08-30T03:32:53.251Z,96232.56
2022-08-30T03:37:56.266Z,96246.00
2022-08-30T03:42:58.707Z,96251.19
2022-08-30T03:48:03.174Z,96269.97
2022-08-30T03:53:05.524Z,96267.84
2022-08-30T03:58:07.719Z,96270.63
2022-08-30T04:03:09.993Z,96266.28
2022-08-30T04:08:12.181Z,96273.63
2022-08-30T04:13:18.654Z,96269.22
2022-08-30T04:18:21.252Z,96283.53
2022-08-30T04:23:23.377Z,96286.31
2022-08-30T04:28:25.862Z,96290.72
2022-08-30T04:33:28.608Z,96284.69
2022-08-30T04:38:31.349Z,96288.72
2022-08-30T04:43:34.381Z,96297.97
2022-08-30T04:48:38.069Z,96292.84
2022-08-30T04:53:42.482Z,96290.59
2022-08-30T04:58:47.006Z,96294.44
2022-08-30T05:03:50.470Z,96305.22
2022-08-30T05:08:54.333Z,96311.34
2022-08-30T05:13:56.447Z,96313.19
2022-08-30T05:18:58.552Z,96303.81
2022-08-30T05:24:01.477Z,96305.38
2022-08-30T05:29:03.865Z,96306.41
2022-08-30T05:34:06.248Z,96295.53
2022-08-30T05:39:10.126Z,96310.03
2022-08-30T05:44:12.656Z,96302.50
2022-08-30T05:49:15.238Z,96284.34
2022-08-30T05:54:17.399Z,96276.69
2022-08-30T05:59:19.876Z,96287.84
2022-08-30T06:04:22.084Z,96259.63
2022-08-30T06:09:24.791Z,96290.22
2022-08-30T06:14:27.102Z,96283.75
2022-08-30T06:19:29.416Z,96275.53
2022-08-30T06:24:55.989Z,96270.59
2022-08-30T06:29:54.419Z,96259.53
2022-08-30T06:34:56.627Z,96264.22
2022-08-30T06:40:00.226Z,96273.03
2022-08-30T06:45:11.039Z,96269.31
2022-08-30T06:50:17.379Z,96287.63
2022-08-30T06:55:20.137Z,96256.63
2022-08-30T07:00:22.409Z,96279.13
2022-08-30T07:05:24.718Z,96274.81
2022-08-30T07:10:27.155Z,96270.63
2022-08-30T07:15:29.389Z,96286.16
2022-08-30T07:20:40.260Z,96250.09
2022-08-30T07:25:43.176Z,96284.88
2022-08-30T07:30:45.300Z,96259.34
2022-08-30T07:35:47.410Z,96294.06
2022-08-30T07:40:49.652Z,96273.03
2022-08-30T07:45:51.925Z,96311.53
2022-08-30T07:50:57.681Z,96312.31
2022-08-30T07:56:02.139Z,96298.97
2022-08-30T08:01:09.771Z,96314.84
2022-08-30T08:06:14.985Z,96316.25
2022-08-30T08:11:23.675Z,96306.69
2022-08-30T08:16:29.264Z,96315.28
2022-08-30T08:21:31.882Z,96287.19
2022-08-30T08:26:36.494Z,96286.13
2022-08-30T08:31:38.979Z,96289.38
2022-08-30T08:36:41.604Z,96296.03
2022-08-30T08:42:16.677Z,96301.75
2022-08-30T08:47:35.709Z,96302.09
2022-08-30T08:53:20.445Z,96297.81
2022-08-30T08:58:35.152Z,96294.53
2022-08-30T09:03:37.868Z,96290.91
2022-08-30T09:08:40.134Z,96282.19
2022-08-30T09:13:42.976Z,96293.75
2022-08-30T09:18:51.358Z,96287.34
2022-08-30T09:24:04.824Z,96291.53
2022-08-30T09:29:17.695Z,96289.56
2022-08-30T09:34:22.551Z,96279.25
2022-08-30T09:39:37.596Z,96274.56
2022-08-30T09:44:40.465Z,96265.00
2022-08-30T09:49:44.961Z,96272.41
2022-08-30T09:55:15.003Z,96262.06
2022-08-30T10:00:23.598Z,96266.28
2022-08-30T10:06:11.788Z,96265.19
2022-08-30T10:11:21.359Z,96264.03
2022-08-30T10:16:44.779Z,96259.09
2022-08-30T10:21:47.016Z,96242.41
2022-08-30T10:26:58.314Z,96226.72
2022-08-30T10:32:13.105Z,96236.69
2022-08-30T10:37:19.903Z,96226.75
2022-08-30T10:42:37.960Z,96212.75
2022-08-30T10:47:54.067Z,96213.78
2022-08-30T10:53:02.547Z,96223.88
2022-08-30T10:58:06.764Z,96215.72
2022-08-30T11:03:46.820Z,96219.75
2022-08-30T11:09:18.581Z,96221.72
2022-08-30T11:14:25.572Z,96219.75
2022-08-30T11:19:40.755Z,96205.53
2022-08-30T11:25:01.910Z,96193.47
2022-08-30T11:30:26.669Z,96199.66
2022-08-30T11:35:55.868Z,96199.41
2022-08-30T11:40:59.145Z,96185.00
2022-08-30T11:46:15.550Z,96169.47
2022-08-30T11:51:50.831Z,96140.53
2022-08-30T11:57:17.729Z,96159.59
2022-08-30T12:02:45.156Z,96150.22
2022-08-30T12:08:01.096Z,96150.50
2022-08-30T12:13:04.085Z,96117.81
2022-08-30T12:18:28.414Z,96152.25
2022-08-30T12:23:44.752Z,96153.63
2022-08-30T12:28:49.760Z,96132.31
2022-08-30T12:34:00.788Z,96136.41
2022-08-30T12:39:30.992Z,96153.69
2022-08-30T12:44:34.278Z,96147.66
2022-08-30T12:49:38.233Z,96116.06
2022-08-30T12:54:41.145Z,96122.75
2022-08-30T12:59:58.482Z,96137.97
2022-08-30T13:05:42.935Z,96128.53
2022-08-30T13:11:08.098Z,96108.41
2022-08-30T13:16:21.868Z,96109.78
2022-08-30T13:21:26.662Z,96105.56
2022-08-30T13:26:32.985Z,96058.59
2022-08-30T13:31:37.217Z,96100.91
2022-08-30T13:36:48.452Z,96085.00
2022-08-30T13:41:51.708Z,96068.47
2022-08-30T13:47:32.077Z,96089.00
2022-08-30T13:52:25.841Z,96090.06
2022-08-30T14:02:57.647Z,96079.59
2022-08-30T14:08:03.231Z,96082.50
2022-08-30T14:13:09.046Z,96094.66
2022-08-30T14:18:15.847Z,96090.53
2022-08-30T14:23:20.849Z,96101.53
2022-08-30T14:28:23.739Z,96078.53
2022-08-30T14:33:26.428Z,96084.72
2022-08-30T14:38:28.689Z,96107.34
2022-08-30T14:43:32.013Z,96102.75
2022-08-30T14:48:34.345Z,96062.09
2022-08-30T14:53:36.956Z,96092.78
2022-08-30T14:58:39.126Z,96067.44
2022-08-30T15:03:42.874Z,96058.28
2022-08-30T15:08:47.765Z,96086.81
2022-08-30T15:13:52.975Z,96084.72
2022-08-30T15:18:58.310Z,96076.16
2022-08-30T15:24:02.528Z,96037.38
2022-08-30T15:29:04.888Z,96076.47
2022-08-30T15:34:12.845Z,96089.56
2022-08-30T15:39:16.163Z,96081.91
2022-08-30T15:44:18.444Z,96067.09
2022-08-30T15:49:23.385Z,96070.69
2022-08-30T15:54:26.003Z,96092.25
2022-08-30T15:59:30.353Z,96083.03
2022-08-30T16:04:32.684Z,96101.03
2022-08-30T16:09:36.859Z,96098.72
2022-08-30T16:14:40.617Z,96095.94
2022-08-30T16:19:43.734Z,96103.75
2022-08-30T16:24:46.621Z,96114.81
2022-08-30T16:29:50.173Z,96109.84
2022-08-30T16:34:52.612Z,96093.53
2022-08-30T16:39:55.190Z,96108.91
2022-08-30T16:44:57.711Z,96096.16
2022-08-30T16:50:00.835Z,96097.53
2022-08-30T16:55:03.714Z,96108.28
2022-08-30T17:00:12.996Z,96115.75
2022-08-30T17:05:15.854Z,96087.16
2022-08-30T17:10:23.098Z,96112.69
2022-08-30T17:15:27.339Z,96121.69
2022-08-30T17:20:34.139Z,96102.66
2022-08-30T17:25:37.738Z,96118.53
2022-08-30T17:30:40.311Z,96107.44
2022-08-30T17:35:42.652Z,96143.84
2022-08-30T17:40:47.061Z,96129.41
2022-08-30T17:45:49.471Z,96164.94
2022-08-30T17:50:58.133Z,96169.72
2022-08-30T17:56:00.649Z,96159.75
2022-08-30T18:01:11.587Z,96173.31
2022-08-30T18:06:14.943Z,96160.06
2022-08-30T18:11:19.127Z,96159.38
2022-08-30T18:16:21.725Z,96168.31
2022-08-30T18:21:28.863Z,96184.31
2022-08-30T18:26:32.257Z,96169.31
2022-08-30T18:31:34.521Z,96204.84
2022-08-30T18:36:36.745Z,96193.22
2022-08-30T18:41:42.953Z,96215.78
2022-08-30T18:46:55.831Z,96205.81
2022-08-30T18:51:59.409Z,96211.53
2022-08-30T18:57:01.794Z,96204.00
2022-08-30T19:02:05.942Z,96209.47
2022-08-30T19:07:10.172Z,96236.13
2022-08-30T19:12:14.826Z,96235.19
2022-08-30T19:17:19.219Z,96207.16
2022-08-30T19:22:27.445Z,96222.28
2022-08-30T19:27:37.236Z,96207.84
2022-08-30T19:32:40.531Z,96224.06
2022-08-30T19:37:43.826Z,96207.84
2022-08-30T19:42:47.040Z,96220.22
2022-08-30T19:47:50.135Z,96240.47
2022-08-30T19:52:54.678Z,96227.38
2022-08-30T19:57:58.021Z,96216.19
2022-08-30T20:03:01.625Z,96237.91
2022-08-30T20:08:04.384Z,96238.03
2022-08-30T20:13:06.690Z,96221.81
2022-08-30T20:18:13.387Z,96210.91
2022-08-30T20:23:19.699Z,96237.34
2022-08-30T20:28:26.085Z,96216.81
2022-08-30T20:33:28.278Z,96212.38
2022-08-30T20:38:31.022Z,96194.16
2022-08-30T20:43:33.282Z,96208.16
2022-08-30T20:48:35.769Z,96219.34
2022-08-30T20:53:38.748Z,96223.44
2022-08-30T20:58:41.317Z,96189.97
2022-08-30T21:03:45.038Z,96223.72
2022-08-30T21:08:50.570Z,96190.53
2022-08-30T21:13:52.728Z,96194.25
2022-08-30T21:18:54.832Z,96195.22
2022-08-30T21:24:00.306Z,96214.09
2022-08-30T21:29:02.776Z,96208.13
2022-08-30T21:34:05.979Z,96178.69
2022-08-30T21:39:09.581Z,96180.94
2022-08-30T21:44:18.793Z,96167.75
2022-08-30T21:49:23.904Z,96200.31
2022-08-30T21:54:28.320Z,96181.94
2022-08-30T21:59:34.186Z,96186.25
2022-08-30T22:04:36.332Z,96170.03
2022-08-30T22:09:38.707Z,96210.03
2022-08-30T22:14:41.395Z,96178.69
2022-08-30T22:19:43.546Z,96188.09
2022-08-30T22:24:45.824Z,96191.50
2022-08-30T22:29:48.030Z,96168.91
2022-08-30T22:34:51.301Z,96175.34
2022-08-30T22:39:53.527Z,96160.59
2022-08-30T22:44:55.662Z,96180.59
2022-08-30T22:49:57.958Z,96162.56
2022-08-30T22:55:01.138Z,96176.38
2022-08-30T23:00:08.869Z,96161.22
2022-08-30T23:05:13.169Z,96158.94
2022-08-30T23:10:15.567Z,96159.75
2022-08-30T23:15:17.999Z,96167.66
2022-08-30T23:20:20.808Z,96117.84
2022-08-30T23:25:44.474Z,96138.06
2022-08-30T23:31:05.241Z,96140.19
2022-08-30T23:36:31.746Z,96167.28
2022-08-30T23:41:52.486Z,96138.75
2022-08-30T23:47:13.238Z,96168.53
2022-08-30T23:52:34.029Z,96168.13
2022-08-30T23:57:54.712Z,96164.00
